createdAt,value
2023-03-24T00:00:42.031Z,7.6
2023-03-24T00:15:42.672Z,4.4
2023-03-24T00:30:43.649Z,5.6
2023-03-24T00:45:45.212Z,6.2
2023-03-24T01:00:46.222Z,7.5
2023-03-24T01:15:55.714Z,7.7
2023-03-24T01:30:47.973Z,8.8
2023-03-24T01:45:46.023Z,6.7
2023-03-24T02:00:47.103Z,6.6
2023-03-24T02:01:35.453Z,5.9
2023-03-24T02:15:47.277Z,6.1
2023-03-24T02:30:47.608Z,8.2
2023-03-24T02:45:48.219Z,7
2023-03-24T03:00:51.150Z,7.2
2023-03-24T03:15:49.380Z,5.2
2023-03-24T03:30:49.400Z,6.1
2023-03-24T03:45:50.510Z,6.3
2023-03-24T04:00:51.121Z,3.6
2023-03-24T04:15:51.692Z,5.1
2023-03-24T04:30:52.155Z,4.8
2023-03-24T04:45:52.474Z,4.4
2023-03-24T05:00:52.938Z,6
2023-03-24T05:14:36.315Z,5.8
2023-03-24T05:29:47.488Z,6.4
2023-03-24T05:44:37.070Z,6.5
2023-03-24T05:59:37.677Z,7.7
2023-03-24T06:14:38.258Z,8.8
2023-03-24T06:29:39.102Z,7.9
2023-03-24T06:44:38.978Z,8.9
2023-03-24T06:59:39.859Z,8.9
2023-03-24T07:14:40.816Z,7.4
2023-03-24T07:29:41.768Z,6.4
2023-03-24T07:44:40.973Z,7.9
2023-03-24T07:59:42.199Z,10.3
2023-03-24T08:14:42.507Z,4.9
2023-03-24T08:29:47.221Z,6.3
2023-03-24T08:44:52.868Z,6.9
2023-03-24T08:59:43.526Z,6.7
2023-03-24T09:14:44.574Z,7.4
2023-03-24T09:29:44.824Z,5.4
2023-03-24T09:44:45.304Z,6.9
2023-03-24T09:59:46.734Z,7.6
2023-03-24T10:15:37.075Z,6.2
2023-03-24T10:29:46.746Z,6.3
2023-03-24T10:44:47.511Z,8.3
2023-03-24T10:59:48.587Z,7.8
2023-03-24T11:14:48.263Z,7.2
2023-03-24T11:29:48.183Z,7.3
2023-03-24T11:44:49.393Z,7.8
2023-03-24T11:59:50.912Z,9.3
2023-03-24T12:14:50.531Z,7
2023-03-24T12:30:26.075Z,6.7
2023-03-24T12:44:51.556Z,7.3
2023-03-24T12:59:52.792Z,2.8
2023-03-24T13:14:52.971Z,2.1
2023-03-24T13:29:53.328Z,2.5
2023-03-24T13:45:04.753Z,1.6
2023-03-24T13:59:53.953Z,2.7
2023-03-24T14:14:57.028Z,4.2
2023-03-24T14:29:57.804Z,4.2
2023-03-24T14:44:56.869Z,5.5
2023-03-24T15:00:00.025Z,2.8
2023-03-24T15:15:00.636Z,2.5
2023-03-24T15:30:03.046Z,1.1
2023-03-24T15:44:59.343Z,2.1
2023-03-24T16:00:03.721Z,0.9
2023-03-24T16:15:01.682Z,1.1
2023-03-24T16:30:00.304Z,2.2
2023-03-24T16:45:00.998Z,2.8
2023-03-24T17:00:01.801Z,2.4
2023-03-24T17:15:08.045Z,2.3
2023-03-24T17:30:02.342Z,1.3
2023-03-24T17:45:02.845Z,1.8
2023-03-24T18:00:04.084Z,1.1
2023-03-24T18:15:03.610Z,7.5
2023-03-24T18:30:07.096Z,2.1
2023-03-24T18:45:06.656Z,4.2
2023-03-24T19:00:06.087Z,6.5
2023-03-24T19:15:16.391Z,1.7
2023-03-24T19:30:06.219Z,1.6
2023-03-24T19:45:12.379Z,1.1
2023-03-24T20:00:07.463Z,1.7
2023-03-24T20:15:12.706Z,5.3
2023-03-24T20:30:08.652Z,1.7
2023-03-24T20:45:09.121Z,1
2023-03-24T21:00:09.393Z,1.6
2023-03-24T21:15:14.753Z,1.6
2023-03-24T21:30:10.187Z,3.1
2023-03-24T21:45:10.955Z,1.4
2023-03-24T22:00:12.751Z,2.2
2023-03-24T22:15:12.713Z,3.2
2023-03-24T22:30:12.941Z,1.1
2023-03-24T22:45:17.412Z,3.9
2023-03-24T23:00:15.622Z,3
2023-03-24T23:15:36.277Z,3.8
2023-03-24T23:30:38.577Z,2.4
2023-03-24T23:45:36.416Z,5.7
